createdAt,value
2017-05-22T00:00:28.525Z,0
2017-05-22T00:01:28.490Z,0
2017-05-22T00:02:28.469Z,0
2017-05-22T00:03:28.455Z,0
2017-05-22T00:04:28.435Z,0
2017-05-22T00:05:28.101Z,0
2017-05-22T00:06:28.380Z,0
2017-05-22T00:07:28.059Z,0
2017-05-22T00:08:28.342Z,0
2017-05-22T00:09:28.317Z,0
2017-05-22T00:10:28.308Z,0
2017-05-22T00:11:28.278Z,0
2017-05-22T00:12:28.253Z,0
2017-05-22T00:13:27.945Z,0
2017-05-22T00:14:28.223Z,0
2017-05-22T00:15:28.247Z,0
2017-05-22T00:16:28.183Z,0
2017-05-22T00:17:28.150Z,0
2017-05-22T00:18:28.125Z,0
2017-05-22T00:19:28.125Z,0
2017-05-22T00:20:28.094Z,0
2017-05-22T00:21:28.074Z,0
2017-05-22T00:22:28.046Z,0
2017-05-22T00:23:28.026Z,0
2017-05-22T00:24:28.014Z,0
2017-05-22T00:25:27.975Z,0
2017-05-22T00:26:27.963Z,0
2017-05-22T00:27:27.947Z,0
2017-05-22T00:28:27.927Z,0
2017-05-22T00:29:27.900Z,0
2017-05-22T00:30:27.877Z,0
2017-05-22T00:31:27.862Z,0
2017-05-22T00:32:27.840Z,0
2017-05-22T00:33:27.818Z,0
2017-05-22T00:34:27.794Z,0
2017-05-22T00:35:27.469Z,0
2017-05-22T00:36:27.756Z,0
2017-05-22T00:37:27.738Z,0
2017-05-22T00:38:27.727Z,0
2017-05-22T00:39:27.762Z,0
2017-05-22T00:40:27.670Z,0
2017-05-22T00:41:27.650Z,0
2017-05-22T00:42:27.622Z,0
2017-05-22T00:43:27.610Z,0
2017-05-22T00:44:27.590Z,0
2017-05-22T00:45:27.258Z,0
2017-05-22T00:46:27.537Z,0
2017-05-22T00:47:27.516Z,0
2017-05-22T00:48:27.497Z,0
2017-05-22T00:49:27.477Z,0
2017-05-22T00:50:27.462Z,0
2017-05-22T00:51:27.434Z,0
2017-05-22T00:52:27.716Z,0
2017-05-22T00:53:27.089Z,0
2017-05-22T00:54:27.368Z,0
2017-05-22T00:55:27.106Z,0
2017-05-22T00:56:27.327Z,0
2017-05-22T00:57:27.008Z,0
2017-05-22T00:58:27.305Z,0
2017-05-22T00:59:27.271Z,0
2017-05-22T01:00:27.257Z,0
2017-05-22T01:01:27.215Z,0
2017-05-22T01:02:26.908Z,0
2017-05-22T01:03:27.131Z,0
2017-05-22T01:04:27.167Z,0
2017-05-22T01:05:26.843Z,0
2017-05-22T01:06:27.179Z,0
2017-05-22T01:07:27.149Z,0
2017-05-22T01:08:27.091Z,0
2017-05-22T01:09:27.106Z,0
2017-05-22T01:10:27.036Z,0
2017-05-22T01:11:27.023Z,0
2017-05-22T01:12:26.998Z,0
2017-05-22T01:13:26.978Z,0
2017-05-22T01:14:26.955Z,0
2017-05-22T01:15:26.932Z,0
2017-05-22T01:16:26.611Z,0
2017-05-22T01:17:26.887Z,0
2017-05-22T01:18:26.872Z,0
2017-05-22T01:19:26.543Z,0
2017-05-22T01:20:26.837Z,0
2017-05-22T01:21:26.809Z,0
2017-05-22T01:22:26.894Z,0
2017-05-22T01:23:26.762Z,0
2017-05-22T01:24:26.737Z,0
2017-05-22T01:25:26.722Z,0
2017-05-22T01:26:26.702Z,0
2017-05-22T01:27:26.731Z,0
2017-05-22T01:28:26.663Z,0
2017-05-22T01:29:26.637Z,0
2017-05-22T01:30:26.620Z,0
2017-05-22T01:31:26.592Z,0
2017-05-22T01:32:26.573Z,0
2017-05-22T01:33:26.542Z,0
2017-05-22T01:34:26.227Z,0
2017-05-22T01:35:26.567Z,0
2017-05-22T01:36:26.180Z,0
2017-05-22T01:37:26.463Z,0
2017-05-22T01:38:26.447Z,0
2017-05-22T01:39:26.429Z,0
2017-05-22T01:40:26.407Z,0
2017-05-22T01:41:26.389Z,0
2017-05-22T01:42:26.373Z,0
2017-05-22T01:43:26.407Z,0
2017-05-22T01:44:26.313Z,0
2017-05-22T01:45:26.304Z,0
2017-05-22T01:46:26.281Z,0
2017-05-22T01:47:26.309Z,0
2017-05-22T01:48:26.287Z,0
2017-05-22T01:49:26.215Z,0
2017-05-22T01:50:26.195Z,0
2017-05-22T01:51:26.174Z,0
2017-05-22T01:52:26.149Z,0
2017-05-22T01:53:26.176Z,0
2017-05-22T01:54:26.111Z,0
2017-05-22T01:55:26.093Z,0
2017-05-22T01:56:26.064Z,0
2017-05-22T01:57:26.051Z,0
2017-05-22T01:58:26.015Z,0
2017-05-22T01:59:26.011Z,0
2017-05-22T02:00:25.991Z,0
2017-05-22T02:01:25.964Z,0
2017-05-22T02:02:25.941Z,0
2017-05-22T02:03:25.616Z,0
2017-05-22T02:04:25.899Z,0
2017-05-22T02:05:25.873Z,0
2017-05-22T02:06:25.849Z,0
2017-05-22T02:07:25.533Z,0
2017-05-22T02:08:25.864Z,0
2017-05-22T02:09:25.887Z,0
2017-05-22T02:10:25.771Z,0
2017-05-22T02:11:25.746Z,0
2017-05-22T02:12:25.731Z,0
2017-05-22T02:13:25.714Z,0
2017-05-22T02:14:25.373Z,0
2017-05-22T02:15:25.665Z,0
2017-05-22T02:16:25.643Z,0
2017-05-22T02:17:25.618Z,0
2017-05-22T02:18:25.302Z,0
2017-05-22T02:19:25.586Z,0
2017-05-22T02:20:25.556Z,0
2017-05-22T02:21:25.580Z,0
2017-05-22T02:22:25.518Z,0
2017-05-22T02:23:25.495Z,0
2017-05-22T02:24:25.465Z,0
2017-05-22T02:25:25.446Z,0
2017-05-22T02:26:25.427Z,0
2017-05-22T02:27:25.403Z,0
2017-05-22T02:28:25.395Z,0
2017-05-22T02:29:25.369Z,0
2017-05-22T02:30:25.033Z,0
2017-05-22T02:31:25.320Z,0
2017-05-22T02:32:25.304Z,0
2017-05-22T02:33:25.276Z,0
2017-05-22T02:34:25.260Z,0
2017-05-22T02:35:25.257Z,0
2017-05-22T02:36:25.219Z,0
2017-05-22T02:37:25.247Z,0
2017-05-22T02:38:24.583Z,0
2017-05-22T02:39:25.148Z,0
2017-05-22T02:40:25.122Z,0
2017-05-22T02:41:25.118Z,4
2017-05-22T02:42:25.075Z,4
2017-05-22T02:43:25.062Z,0
2017-05-22T02:44:25.110Z,0
2017-05-22T02:45:25.025Z,0
2017-05-22T02:46:25.002Z,4
2017-05-22T02:47:24.986Z,4
2017-05-22T02:48:24.963Z,4
2017-05-22T02:49:24.996Z,4
2017-05-22T02:50:24.907Z,4
2017-05-22T02:51:24.898Z,4
2017-05-22T02:52:24.924Z,4
2017-05-22T02:53:24.852Z,8
2017-05-22T02:54:24.534Z,8
2017-05-22T02:55:24.805Z,8
2017-05-22T02:56:24.783Z,8
2017-05-22T02:57:24.762Z,8
2017-05-22T02:58:24.745Z,12
2017-05-22T02:59:24.726Z,12
2017-05-22T03:00:24.752Z,12
2017-05-22T03:01:24.677Z,16
2017-05-22T03:02:24.658Z,20
2017-05-22T03:03:24.643Z,24
2017-05-22T03:04:24.614Z,24
2017-05-22T03:05:24.638Z,28
2017-05-22T03:06:24.568Z,32
2017-05-22T03:07:24.556Z,36
2017-05-22T03:08:24.541Z,40
2017-05-22T03:09:24.525Z,44
2017-05-22T03:10:24.478Z,52
2017-05-22T03:11:24.471Z,56
2017-05-22T03:12:24.438Z,64
2017-05-22T03:13:24.125Z,72
2017-05-22T03:14:24.410Z,80
2017-05-22T03:15:24.676Z,88
2017-05-22T03:16:24.353Z,96
2017-05-22T03:17:24.340Z,104
2017-05-22T03:18:24.311Z,112
2017-05-22T03:19:24.299Z,120
2017-05-22T03:20:23.976Z,132
2017-05-22T03:21:24.247Z,144
2017-05-22T03:22:24.273Z,156
2017-05-22T03:23:23.920Z,164
2017-05-22T03:24:24.205Z,180
2017-05-22T03:25:24.225Z,196
2017-05-22T03:26:24.149Z,208
2017-05-22T03:27:24.429Z,224
2017-05-22T03:28:24.097Z,244
2017-05-22T03:29:24.076Z,264
2017-05-22T03:30:24.304Z,280
2017-05-22T03:31:23.777Z,308
2017-05-22T03:32:24.019Z,332
2017-05-22T03:33:24.002Z,360
2017-05-22T03:34:23.986Z,388
2017-05-22T03:35:23.948Z,412
2017-05-22T03:36:23.924Z,444
2017-05-22T03:37:23.913Z,476
2017-05-22T03:38:23.884Z,508
2017-05-22T03:39:23.572Z,536
2017-05-22T03:40:23.837Z,560
2017-05-22T03:41:23.522Z,576
2017-05-22T03:42:23.800Z,600
2017-05-22T03:43:23.774Z,632
2017-05-22T03:44:23.767Z,660
2017-05-22T03:45:23.731Z,692
2017-05-22T03:46:23.722Z,728
2017-05-22T03:47:23.684Z,776
2017-05-22T03:48:23.664Z,832
2017-05-22T03:49:23.653Z,892
2017-05-22T03:50:23.622Z,940
2017-05-22T03:51:23.599Z,984
2017-05-22T03:52:23.586Z,1028
2017-05-22T03:53:22.946Z,1064
2017-05-22T03:54:23.538Z,1108
2017-05-22T03:55:23.212Z,1152
2017-05-22T03:56:23.538Z,1196
2017-05-22T03:57:23.467Z,1248
2017-05-22T03:58:23.500Z,1316
2017-05-22T03:59:23.429Z,1392
2017-05-22T04:00:23.407Z,1496
2017-05-22T04:01:23.384Z,1656
2017-05-22T04:02:23.366Z,1812
2017-05-22T04:03:23.346Z,1896
2017-05-22T04:04:23.321Z,1932
2017-05-22T04:05:23.295Z,2028
2017-05-22T04:06:23.278Z,2196
2017-05-22T04:07:23.259Z,2392
2017-05-22T04:08:23.280Z,2516
2017-05-22T04:09:23.283Z,2512
2017-05-22T04:10:23.192Z,2528
2017-05-22T04:11:23.178Z,2620
2017-05-22T04:12:23.156Z,2712
2017-05-22T04:13:23.177Z,2704
2017-05-22T04:14:23.116Z,2656
2017-05-22T04:15:23.093Z,2648
2017-05-22T04:16:22.762Z,2712
2017-05-22T04:17:23.042Z,2840
2017-05-22T04:18:23.018Z,2952
2017-05-22T04:19:23.006Z,3112
2017-05-22T04:20:22.681Z,3328
2017-05-22T04:21:22.952Z,3492
2017-05-22T04:22:22.938Z,3580
2017-05-22T04:23:22.909Z,3624
2017-05-22T04:24:22.896Z,3712
2017-05-22T04:25:22.872Z,3908
2017-05-22T04:26:22.852Z,4084
2017-05-22T04:27:22.828Z,4196
2017-05-22T04:28:22.811Z,4288
2017-05-22T04:29:22.788Z,4472
2017-05-22T04:30:22.769Z,4700
2017-05-22T04:31:22.745Z,4964
2017-05-22T04:32:22.724Z,5252
2017-05-22T04:33:22.713Z,5436
2017-05-22T04:34:22.704Z,5484
2017-05-22T04:35:22.660Z,5600
2017-05-22T04:36:22.644Z,5836
2017-05-22T04:37:22.312Z,6128
2017-05-22T04:38:22.599Z,6348
2017-05-22T04:39:22.641Z,6596
2017-05-22T04:40:22.551Z,7140
2017-05-22T04:41:22.548Z,7664
2017-05-22T04:42:22.514Z,7840
2017-05-22T04:43:22.493Z,7768
2017-05-22T04:44:22.478Z,7916
2017-05-22T04:45:22.498Z,8148
2017-05-22T04:46:22.423Z,8156
2017-05-22T04:47:22.416Z,8144
2017-05-22T04:48:22.090Z,8036
2017-05-22T04:49:22.372Z,7976
2017-05-22T04:50:22.349Z,8104
2017-05-22T04:51:22.325Z,8320
2017-05-22T04:52:22.019Z,8412
2017-05-22T04:53:22.291Z,8400
2017-05-22T04:54:21.979Z,8140
2017-05-22T04:55:22.260Z,7684
2017-05-22T04:56:22.233Z,7876
2017-05-22T04:57:22.207Z,8704
2017-05-22T04:58:22.202Z,9312
2017-05-22T04:59:22.191Z,9716
2017-05-22T05:00:22.154Z,10128
2017-05-22T05:01:21.825Z,10460
2017-05-22T05:02:21.809Z,10892
2017-05-22T05:03:22.152Z,11500
2017-05-22T05:04:22.071Z,11912
2017-05-22T05:05:21.750Z,12296
2017-05-22T05:06:22.036Z,12584
2017-05-22T05:07:22.010Z,12828
2017-05-22T05:08:21.991Z,13132
2017-05-22T05:09:22.027Z,13360
2017-05-22T05:10:21.960Z,13408
2017-05-22T05:11:21.939Z,13484
2017-05-22T05:12:21.615Z,13792
2017-05-22T05:13:21.933Z,14112
2017-05-22T05:14:21.883Z,14336
2017-05-22T05:15:21.855Z,14528
2017-05-22T05:16:21.864Z,14784
2017-05-22T05:17:21.829Z,15136
2017-05-22T05:18:21.824Z,15392
2017-05-22T05:19:21.789Z,15520
2017-05-22T05:20:21.774Z,15712
2017-05-22T05:21:21.455Z,15936
2017-05-22T05:22:21.429Z,16192
2017-05-22T05:23:21.725Z,16384
2017-05-22T05:24:21.693Z,16544
2017-05-22T05:25:21.679Z,16704
2017-05-22T05:26:21.716Z,16896
2017-05-22T05:27:21.656Z,17184
2017-05-22T05:28:21.636Z,17344
2017-05-22T05:29:21.621Z,17344
2017-05-22T05:30:21.612Z,17440
2017-05-22T05:31:21.581Z,17824
2017-05-22T05:32:21.611Z,18592
2017-05-22T05:33:21.596Z,18656
2017-05-22T05:34:21.529Z,18432
2017-05-22T05:35:21.514Z,18400
2017-05-22T05:36:21.494Z,18464
2017-05-22T05:37:21.471Z,18304
2017-05-22T05:38:21.462Z,18144
2017-05-22T05:39:21.490Z,18560
2017-05-22T05:40:21.430Z,19904
2017-05-22T05:41:21.415Z,21216
2017-05-22T05:42:21.381Z,21792
2017-05-22T05:43:21.382Z,21792
2017-05-22T05:44:21.359Z,21728
2017-05-22T05:45:21.396Z,21664
2017-05-22T05:46:21.322Z,21312
2017-05-22T05:47:21.305Z,20640
2017-05-22T05:48:21.299Z,19584
2017-05-22T05:49:21.279Z,19648
2017-05-22T05:50:21.478Z,21120
2017-05-22T05:51:21.251Z,21792
2017-05-22T05:52:21.235Z,21728
2017-05-22T05:53:21.214Z,21440
2017-05-22T05:54:21.249Z,22112
2017-05-22T05:55:21.190Z,22784
2017-05-22T05:56:21.251Z,22752
2017-05-22T05:57:21.143Z,21920
2017-05-22T05:58:21.139Z,20832
2017-05-22T05:59:20.827Z,20480
2017-05-22T06:00:21.157Z,20928
2017-05-22T06:01:21.094Z,21376
2017-05-22T06:02:21.103Z,21824
2017-05-22T06:03:21.112Z,22016
2017-05-22T06:04:21.047Z,22112
2017-05-22T06:05:21.029Z,22208
2017-05-22T06:06:21.023Z,22432
2017-05-22T06:07:21.009Z,22784
2017-05-22T06:08:20.689Z,22912
2017-05-22T06:09:20.986Z,22720
2017-05-22T06:10:20.963Z,22720
2017-05-22T06:11:20.952Z,23232
2017-05-22T06:12:20.626Z,23680
2017-05-22T06:13:20.936Z,23840
2017-05-22T06:14:20.907Z,24000
2017-05-22T06:15:20.898Z,24480
2017-05-22T06:16:20.590Z,25248
2017-05-22T06:17:20.922Z,26528
2017-05-22T06:18:20.555Z,27424
2017-05-22T06:19:20.840Z,27296
2017-05-22T06:20:20.827Z,26304
2017-05-22T06:21:20.814Z,25024
2017-05-22T06:22:20.496Z,24256
2017-05-22T06:23:20.787Z,24224
2017-05-22T06:24:20.783Z,24992
2017-05-22T06:25:20.789Z,26080
2017-05-22T06:26:20.744Z,26976
2017-05-22T06:27:20.738Z,27584
2017-05-22T06:28:20.723Z,28384
2017-05-22T06:29:20.406Z,28608
2017-05-22T06:30:20.694Z,28736
2017-05-22T06:31:20.682Z,28768
2017-05-22T06:32:20.660Z,29152
2017-05-22T06:33:20.653Z,29248
2017-05-22T06:34:20.650Z,28864
2017-05-22T06:35:20.639Z,28672
2017-05-22T06:36:20.610Z,28864
2017-05-22T06:37:20.607Z,29824
2017-05-22T06:38:20.590Z,30368
2017-05-22T06:39:20.596Z,29376
2017-05-22T06:40:20.556Z,27712
2017-05-22T06:41:20.547Z,26336
2017-05-22T06:42:20.612Z,26752
2017-05-22T06:43:20.531Z,29056
2017-05-22T06:44:20.530Z,32544
2017-05-22T06:45:20.194Z,35488
2017-05-22T06:46:20.197Z,37184
2017-05-22T06:47:20.200Z,37024
2017-05-22T06:48:20.489Z,35680
2017-05-22T06:49:20.464Z,34848
2017-05-22T06:50:20.400Z,34336
2017-05-22T06:51:20.439Z,34144
2017-05-22T06:52:20.430Z,33568
2017-05-22T06:53:20.412Z,32256
2017-05-22T06:54:20.420Z,31360
2017-05-22T06:55:20.390Z,30560
2017-05-22T06:56:20.385Z,29600
2017-05-22T06:57:20.377Z,29344
2017-05-22T06:58:20.362Z,30080
2017-05-22T06:59:20.055Z,31808
2017-05-22T07:00:20.344Z,35616
2017-05-22T07:01:20.387Z,39584
2017-05-22T07:02:20.333Z,40992
2017-05-22T07:03:20.319Z,38752
2017-05-22T07:04:19.992Z,35392
2017-05-22T07:05:20.291Z,32352
2017-05-22T07:06:20.341Z,31424
2017-05-22T07:07:20.266Z,34016
2017-05-22T07:08:20.308Z,37472
2017-05-22T07:09:20.253Z,39840
2017-05-22T07:10:20.239Z,39968
2017-05-22T07:11:19.915Z,38720
2017-05-22T07:12:20.210Z,36000
2017-05-22T07:13:20.210Z,33632
2017-05-22T07:14:20.202Z,33568
2017-05-22T07:15:20.190Z,35968
2017-05-22T07:16:20.193Z,39328
2017-05-22T07:17:20.164Z,42912
2017-05-22T07:18:20.173Z,44192
2017-05-22T07:19:20.154Z,43360
2017-05-22T07:20:20.128Z,42464
2017-05-22T07:21:20.176Z,40704
2017-05-22T07:22:20.168Z,39264
2017-05-22T07:23:20.102Z,39104
2017-05-22T07:24:20.119Z,38720
2017-05-22T07:25:19.794Z,38816
2017-05-22T07:26:20.128Z,40480
2017-05-22T07:27:20.062Z,41888
2017-05-22T07:28:20.053Z,42688
2017-05-22T07:29:20.055Z,42816
2017-05-22T07:30:20.034Z,42592
2017-05-22T07:31:19.727Z,43264
2017-05-22T07:32:20.030Z,44448
2017-05-22T07:33:20.010Z,46528
2017-05-22T07:34:20.023Z,47680
2017-05-22T07:35:19.997Z,46944
2017-05-22T07:36:19.991Z,45600
2017-05-22T07:37:19.980Z,43136
2017-05-22T07:38:19.973Z,41184
2017-05-22T07:39:19.957Z,40928
2017-05-22T07:40:19.654Z,42272
2017-05-22T07:41:19.943Z,45824
2017-05-22T07:42:19.934Z,49152
2017-05-22T07:43:19.929Z,52384
2017-05-22T07:44:19.919Z,53536
2017-05-22T07:45:19.909Z,52224
2017-05-22T07:46:19.915Z,49536
2017-05-22T07:47:19.899Z,47168
2017-05-22T07:48:19.892Z,45088
2017-05-22T07:49:19.885Z,43136
2017-05-22T07:50:19.878Z,42848
2017-05-22T07:51:19.870Z,44544
2017-05-22T07:52:19.858Z,46784
2017-05-22T07:53:19.862Z,49632
2017-05-22T07:54:19.855Z,53088
2017-05-22T07:55:19.856Z,54304
2017-05-22T07:56:19.840Z,54336
2017-05-22T07:57:19.835Z,53792
2017-05-22T07:58:19.832Z,52224
2017-05-22T07:59:19.825Z,50560
2017-05-22T08:00:19.816Z,49664
2017-05-22T08:01:19.502Z,49920
2017-05-22T08:02:19.867Z,50720
2017-05-22T08:03:19.802Z,51616
2017-05-22T08:04:19.793Z,52320
2017-05-22T08:05:19.783Z,52896
2017-05-22T08:06:19.778Z,52320
2017-05-22T08:07:19.775Z,51584
2017-05-22T08:08:19.768Z,52096
2017-05-22T08:09:19.768Z,54304
2017-05-22T08:10:19.755Z,56864
2017-05-22T08:11:19.760Z,58912
2017-05-22T08:12:19.755Z,59616
2017-05-22T08:13:19.442Z,58752
2017-05-22T08:14:19.425Z,60064
2017-05-22T08:15:19.727Z,58304
2017-05-22T08:16:19.410Z,54528
2017-05-22T08:17:19.712Z,53760
2017-05-22T08:18:19.708Z,55168
2017-05-22T08:19:19.707Z,58176
2017-05-22T08:20:19.391Z,61984
2017-05-22T08:21:19.709Z,65440
2017-05-22T08:22:19.692Z,65728
2017-05-22T08:23:19.682Z,64768
2017-05-22T08:24:19.681Z,62048
2017-05-22T08:25:19.695Z,57760
2017-05-22T08:26:19.662Z,54528
2017-05-22T08:27:19.664Z,52704
2017-05-22T08:28:19.663Z,55104
2017-05-22T08:29:19.640Z,58400
2017-05-22T08:30:19.643Z,63520
2017-05-22T08:31:19.680Z,67904
2017-05-22T08:32:19.669Z,70240
2017-05-22T08:33:19.630Z,68416
2017-05-22T08:34:19.607Z,63552
2017-05-22T08:35:19.611Z,58848
2017-05-22T08:36:19.596Z,59456
2017-05-22T08:37:19.303Z,64544
2017-05-22T08:38:19.590Z,67168
2017-05-22T08:39:19.581Z,72320
2017-05-22T08:40:19.569Z,75072
2017-05-22T08:41:19.576Z,77152
2017-05-22T08:42:19.267Z,78272
2017-05-22T08:43:19.507Z,77472
2017-05-22T08:44:19.552Z,76288
2017-05-22T08:45:19.550Z,69472
2017-05-22T08:46:19.241Z,62304
2017-05-22T08:47:19.540Z,61504
2017-05-22T08:48:19.539Z,61440
2017-05-22T08:49:19.529Z,60384
2017-05-22T08:50:19.222Z,59904
2017-05-22T08:51:19.515Z,59552
2017-05-22T08:52:19.527Z,57856
2017-05-22T08:53:19.514Z,56608
2017-05-22T08:54:19.500Z,55072
2017-05-22T08:55:19.193Z,54976
2017-05-22T08:56:19.181Z,56640
2017-05-22T08:57:19.528Z,58880
2017-05-22T08:58:19.496Z,61984
2017-05-22T08:59:19.173Z,64384
2017-05-22T09:00:19.165Z,62912
2017-05-22T09:01:19.468Z,60032
2017-05-22T09:02:19.460Z,55712
2017-05-22T09:03:19.465Z,56576
2017-05-22T09:04:19.448Z,58304
2017-05-22T09:05:19.439Z,58208
2017-05-22T09:06:18.821Z,62784
2017-05-22T09:07:19.473Z,70016
2017-05-22T09:08:19.435Z,76992
2017-05-22T09:09:19.419Z,80256
2017-05-22T09:10:19.399Z,81216
2017-05-22T09:11:19.395Z,80608
2017-05-22T09:12:19.393Z,78784
2017-05-22T09:13:19.440Z,73984
2017-05-22T09:14:19.377Z,67360
2017-05-22T09:15:19.373Z,65376
2017-05-22T09:16:19.371Z,67552
2017-05-22T09:17:19.357Z,68192
2017-05-22T09:18:19.365Z,69952
2017-05-22T09:19:19.349Z,62976
2017-05-22T09:20:19.349Z,71904
2017-05-22T09:21:19.034Z,75648
2017-05-22T09:22:19.339Z,76224
2017-05-22T09:23:19.350Z,77632
2017-05-22T09:24:19.018Z,78720
2017-05-22T09:25:19.313Z,77920
2017-05-22T09:26:19.302Z,71232
2017-05-22T09:27:19.306Z,68576
2017-05-22T09:28:19.287Z,65440
2017-05-22T09:29:19.334Z,62720
2017-05-22T09:30:18.984Z,61024
2017-05-22T09:31:19.279Z,62944
2017-05-22T09:32:19.270Z,66400
2017-05-22T09:33:18.945Z,73952
2017-05-22T09:34:19.301Z,80320
2017-05-22T09:35:19.230Z,83424
2017-05-22T09:36:19.239Z,84736
2017-05-22T09:37:19.227Z,82560
2017-05-22T09:38:19.223Z,80896
2017-05-22T09:39:19.212Z,74720
2017-05-22T09:40:18.906Z,70496
2017-05-22T09:41:19.189Z,67872
2017-05-22T09:42:19.190Z,68448
2017-05-22T09:43:18.891Z,64736
2017-05-22T09:44:19.172Z,64800
2017-05-22T09:45:19.174Z,66400
2017-05-22T09:46:19.153Z,68768
2017-05-22T09:47:19.171Z,72544
2017-05-22T09:48:19.138Z,74784
2017-05-22T09:49:19.150Z,77312
2017-05-22T09:50:19.134Z,76512
2017-05-22T09:51:19.126Z,74208
2017-05-22T09:52:19.110Z,71168
2017-05-22T09:53:18.811Z,68640
2017-05-22T09:54:18.791Z,67392
2017-05-22T09:55:18.788Z,70624
2017-05-22T09:56:19.086Z,76096
2017-05-22T09:57:19.096Z,83072
2017-05-22T09:58:19.071Z,87840
2017-05-22T09:59:19.062Z,88448
2017-05-22T10:00:19.103Z,84608
2017-05-22T10:01:23.709Z,81152
2017-05-22T10:02:19.037Z,76384
2017-05-22T10:03:19.031Z,71648
2017-05-22T10:04:19.027Z,72544
2017-05-22T10:05:18.711Z,79552
2017-05-22T10:06:19.115Z,86752
2017-05-22T10:07:19.008Z,93792
2017-05-22T10:08:18.985Z,96928
2017-05-22T10:09:18.697Z,91680
2017-05-22T10:10:18.971Z,86400
2017-05-22T10:11:18.969Z,76896
2017-05-22T10:12:18.963Z,69376
2017-05-22T10:13:18.967Z,64704
2017-05-22T10:14:18.952Z,66464
2017-05-22T10:15:18.931Z,73344
2017-05-22T10:16:18.935Z,80672
2017-05-22T10:17:18.921Z,85312
2017-05-22T10:18:18.922Z,86272
2017-05-22T10:19:18.912Z,90560
2017-05-22T10:20:18.900Z,97344
2017-05-22T10:21:18.936Z,98560
2017-05-22T10:22:18.877Z,98880
2017-05-22T10:23:18.572Z,102528
2017-05-22T10:24:18.864Z,103072
2017-05-22T10:25:18.572Z,99392
2017-05-22T10:26:18.861Z,91648
2017-05-22T10:27:18.837Z,84544
2017-05-22T10:28:18.542Z,77664
2017-05-22T10:29:18.834Z,76960
2017-05-22T10:30:19.079Z,80448
2017-05-22T10:31:18.808Z,85120
2017-05-22T10:32:18.513Z,89984
2017-05-22T10:33:18.804Z,92768
2017-05-22T10:34:18.786Z,93952
2017-05-22T10:35:18.784Z,92544
2017-05-22T10:36:18.537Z,89888
2017-05-22T10:37:18.767Z,88096
2017-05-22T10:38:18.757Z,88064
2017-05-22T10:39:18.806Z,88416
2017-05-22T10:40:18.745Z,87360
2017-05-22T10:41:18.783Z,88320
2017-05-22T10:42:18.719Z,66848
2017-05-22T10:43:18.730Z,91648
2017-05-22T10:44:18.717Z,94624
2017-05-22T10:45:18.705Z,98400
2017-05-22T10:46:18.694Z,101792
2017-05-22T10:47:18.701Z,100736
2017-05-22T10:48:18.688Z,99200
2017-05-22T10:49:18.669Z,102496
2017-05-22T10:50:18.367Z,104384
2017-05-22T10:51:18.653Z,104288
2017-05-22T10:52:18.665Z,103840
2017-05-22T10:53:18.654Z,104064
2017-05-22T10:54:18.633Z,106944
2017-05-22T10:55:18.622Z,106688
2017-05-22T10:56:18.623Z,103520
2017-05-22T10:57:18.620Z,105184
2017-05-22T10:58:18.724Z,107264
2017-05-22T10:59:18.666Z,107008
2017-05-22T11:00:18.291Z,107840
2017-05-22T11:01:18.593Z,107424
2017-05-22T11:02:18.569Z,104864
2017-05-22T11:03:18.593Z,101824
2017-05-22T11:04:18.562Z,28768
2017-05-22T11:05:18.566Z,12080
2017-05-22T11:06:18.548Z,13444
2017-05-22T11:07:18.234Z,19968
2017-05-22T11:08:18.578Z,56288
2017-05-22T11:09:18.526Z,18336
2017-05-22T11:10:18.515Z,16384
2017-05-22T11:11:18.510Z,14836
2017-05-22T11:12:18.499Z,13028
2017-05-22T11:13:18.489Z,11560
2017-05-22T11:14:18.478Z,11104
2017-05-22T11:15:18.466Z,9672
2017-05-22T11:16:18.471Z,9056
2017-05-22T11:17:18.447Z,8756
2017-05-22T11:18:18.524Z,8260
2017-05-22T11:19:18.423Z,7772
2017-05-22T11:20:17.796Z,7340
2017-05-22T11:21:18.411Z,7060
2017-05-22T11:22:18.397Z,7000
2017-05-22T11:23:18.372Z,7100
2017-05-22T11:24:18.356Z,8136
2017-05-22T11:25:18.339Z,6944
2017-05-22T11:26:18.029Z,6520
2017-05-22T11:27:18.005Z,6696
2017-05-22T11:28:18.305Z,7300
2017-05-22T11:29:18.290Z,8360
2017-05-22T11:30:18.263Z,7912
2017-05-22T11:31:18.251Z,7232
2017-05-22T11:32:18.231Z,6192
2017-05-22T11:33:18.221Z,6352
2017-05-22T11:34:18.206Z,6824
2017-05-22T11:35:18.191Z,6868
2017-05-22T11:36:18.177Z,6600
2017-05-22T11:37:18.180Z,6436
2017-05-22T11:38:18.139Z,6316
2017-05-22T11:39:18.121Z,6292
2017-05-22T11:40:18.115Z,6252
2017-05-22T11:41:17.487Z,6176
2017-05-22T11:42:18.067Z,6100
2017-05-22T11:43:18.047Z,6112
2017-05-22T11:44:18.045Z,6140
2017-05-22T11:45:17.777Z,6256
2017-05-22T11:46:18.008Z,6380
2017-05-22T11:47:17.992Z,6648
2017-05-22T11:48:18.031Z,7080
2017-05-22T11:49:17.973Z,7552
2017-05-22T11:50:17.950Z,8004
2017-05-22T11:51:17.975Z,7880
2017-05-22T11:52:17.902Z,7584
2017-05-22T11:53:17.887Z,7168
2017-05-22T11:54:17.877Z,6668
2017-05-22T11:55:17.866Z,6628
2017-05-22T11:56:17.913Z,6564
2017-05-22T11:57:17.522Z,6072
2017-05-22T11:58:17.504Z,5752
2017-05-22T11:59:17.477Z,5912
2017-05-22T12:00:17.783Z,6048
2017-05-22T12:01:17.757Z,6340
2017-05-22T12:02:17.732Z,5944
2017-05-22T12:03:17.721Z,5908
2017-05-22T12:04:17.714Z,6108
2017-05-22T12:05:17.686Z,6004
2017-05-22T12:06:17.369Z,6216
2017-05-22T12:07:17.856Z,6388
2017-05-22T12:08:17.629Z,5780
2017-05-22T12:09:17.672Z,5612
2017-05-22T12:10:17.604Z,5468
2017-05-22T12:11:17.629Z,5352
2017-05-22T12:12:17.267Z,5296
2017-05-22T12:13:17.549Z,5260
2017-05-22T12:14:17.531Z,5232
2017-05-22T12:15:17.206Z,5180
2017-05-22T12:16:17.494Z,5072
2017-05-22T12:17:17.477Z,5104
2017-05-22T12:18:17.462Z,5108
2017-05-22T12:19:17.449Z,5136
2017-05-22T12:20:17.438Z,5148
2017-05-22T12:21:17.466Z,5144
2017-05-22T12:22:17.404Z,5128
2017-05-22T12:23:17.373Z,5084
2017-05-22T12:24:17.371Z,5060
2017-05-22T12:25:17.343Z,5072
2017-05-22T12:26:17.319Z,5108
2017-05-22T12:27:17.357Z,5156
2017-05-22T12:28:16.988Z,5252
2017-05-22T12:29:17.271Z,5296
2017-05-22T12:30:17.251Z,5320
2017-05-22T12:31:17.238Z,5292
2017-05-22T12:32:17.465Z,5296
2017-05-22T12:33:17.262Z,5312
2017-05-22T12:34:17.183Z,5292
2017-05-22T12:35:17.167Z,5568
2017-05-22T12:36:17.160Z,5812
2017-05-22T12:37:17.140Z,5752
2017-05-22T12:38:17.120Z,5504
2017-05-22T12:39:17.101Z,5796
2017-05-22T12:40:16.832Z,6116
2017-05-22T12:41:17.022Z,6256
2017-05-22T12:42:17.093Z,6072
2017-05-22T12:43:17.036Z,5864
2017-05-22T12:44:16.469Z,5640
2017-05-22T12:45:16.989Z,5376
2017-05-22T12:46:16.983Z,5196
2017-05-22T12:47:16.958Z,5052
2017-05-22T12:48:17.054Z,5068
2017-05-22T12:49:16.926Z,5152
2017-05-22T12:50:17.209Z,5288
2017-05-22T12:51:16.884Z,5320
2017-05-22T12:52:16.573Z,5204
2017-05-22T12:53:16.857Z,5108
2017-05-22T12:54:16.835Z,5072
2017-05-22T12:55:16.821Z,5064
2017-05-22T12:56:16.800Z,5056
2017-05-22T12:57:16.779Z,5092
2017-05-22T12:58:16.771Z,5120
2017-05-22T12:59:16.757Z,5160
2017-05-22T13:00:16.731Z,5248
2017-05-22T13:01:16.715Z,5224
2017-05-22T13:02:16.395Z,5296
2017-05-22T13:03:16.687Z,5272
2017-05-22T13:04:16.662Z,5268
2017-05-22T13:05:16.637Z,5228
2017-05-22T13:06:16.631Z,5228
2017-05-22T13:07:16.602Z,5244
2017-05-22T13:08:16.591Z,5256
2017-05-22T13:09:16.303Z,5312
2017-05-22T13:10:16.559Z,5592
2017-05-22T13:11:16.545Z,5664
2017-05-22T13:12:16.528Z,5832
2017-05-22T13:13:16.506Z,6184
2017-05-22T13:14:16.496Z,6472
2017-05-22T13:15:16.477Z,6596
2017-05-22T13:16:16.472Z,6400
2017-05-22T13:17:16.495Z,5968
2017-05-22T13:18:16.417Z,5680
2017-05-22T13:19:16.401Z,5416
2017-05-22T13:20:16.384Z,5228
2017-05-22T13:21:16.381Z,5168
2017-05-22T13:22:16.604Z,5304
2017-05-22T13:23:16.349Z,5548
2017-05-22T13:24:16.321Z,5684
2017-05-22T13:25:16.351Z,5628